sensor_id;sensor_type;location;lat;lon;timestamp;P1;durP1;ratioP1;P2;durP2;ratioP2
21769;SDS011;11046;49.558;8.674;2023-04-24T00:02:22;3.30;;;1.30;;
21769;SDS011;11046;49.558;8.674;2023-04-24T00:05:24;1.87;;;1.30;;
21769;SDS011;11046;49.558;8.674;2023-04-24T00:08:25;2.87;;;1.27;;
21769;SDS011;11046;49.558;8.674;2023-04-24T00:11:26;3.90;;;1.30;;
21769;SDS011;11046;49.558;8.674;2023-04-24T00:14:26;2.73;;;1.30;;
21769;SDS011;11046;49.558;8.674;2023-04-24T00:17:27;4.35;;;1.27;;
21769;SDS011;11046;49.558;8.674;2023-04-24T00:20:28;2.87;;;1.10;;
21769;SDS011;11046;49.558;8.674;2023-04-24T00:23:29;2.10;;;1.20;;
21769;SDS011;11046;49.558;8.674;2023-04-24T00:26:30;3.13;;;1.30;;
21769;SDS011;11046;49.558;8.674;2023-04-24T00:29:31;2.00;;;1.20;;
21769;SDS011;11046;49.558;8.674;2023-04-24T00:32:31;3.90;;;1.17;;
21769;SDS011;11046;49.558;8.674;2023-04-24T00:35:32;3.50;;;1.30;;
21769;SDS011;11046;49.558;8.674;2023-04-24T00:38:32;1.63;;;1.27;;
21769;SDS011;11046;49.558;8.674;2023-04-24T00:41:33;1.40;;;1.17;;
21769;SDS011;11046;49.558;8.674;2023-04-24T00:44:33;2.67;;;1.17;;
21769;SDS011;11046;49.558;8.674;2023-04-24T00:47:34;3.83;;;1.40;;
21769;SDS011;11046;49.558;8.674;2023-04-24T00:50:36;2.80;;;1.30;;
21769;SDS011;11046;49.558;8.674;2023-04-24T00:53:36;3.40;;;1.40;;
21769;SDS011;11046;49.558;8.674;2023-04-24T00:56:37;1.50;;;1.30;;
21769;SDS011;11046;49.558;8.674;2023-04-24T00:59:37;1.80;;;1.00;;
21769;SDS011;11046;49.558;8.674;2023-04-24T01:02:41;2.80;;;1.40;;
21769;SDS011;11046;49.558;8.674;2023-04-24T01:05:45;2.80;;;1.30;;
21769;SDS011;11046;49.558;8.674;2023-04-24T01:08:47;2.13;;;1.20;;
21769;SDS011;11046;49.558;8.674;2023-04-24T01:11:48;3.27;;;1.30;;
21769;SDS011;11046;49.558;8.674;2023-04-24T01:14:50;2.13;;;1.20;;
21769;SDS011;11046;49.558;8.674;2023-04-24T01:17:50;4.80;;;1.50;;
21769;SDS011;11046;49.558;8.674;2023-04-24T01:20:52;2.30;;;1.30;;
21769;SDS011;11046;49.558;8.674;2023-04-24T01:23:54;3.37;;;1.33;;
21769;SDS011;11046;49.558;8.674;2023-04-24T01:26:55;2.73;;;1.47;;
21769;SDS011;11046;49.558;8.674;2023-04-24T01:29:56;5.23;;;1.40;;
21769;SDS011;11046;49.558;8.674;2023-04-24T01:32:57;3.10;;;1.40;;
21769;SDS011;11046;49.558;8.674;2023-04-24T01:35:59;3.87;;;1.37;;
21769;SDS011;11046;49.558;8.674;2023-04-24T01:39:00;2.23;;;1.30;;
21769;SDS011;11046;49.558;8.674;2023-04-24T01:42:01;2.20;;;1.33;;
21769;SDS011;11046;49.558;8.674;2023-04-24T01:45:03;4.00;;;1.30;;
21769;SDS011;11046;49.558;8.674;2023-04-24T01:48:05;6.43;;;1.30;;
21769;SDS011;11046;49.558;8.674;2023-04-24T01:51:05;1.53;;;1.27;;
21769;SDS011;11046;49.558;8.674;2023-04-24T01:54:06;1.50;;;1.00;;
21769;SDS011;11046;49.558;8.674;2023-04-24T01:57:07;2.37;;;1.00;;
21769;SDS011;11046;49.558;8.674;2023-04-24T02:00:08;4.27;;;1.40;;
21769;SDS011;11046;49.558;8.674;2023-04-24T02:03:14;1.27;;;0.90;;
21769;SDS011;11046;49.558;8.674;2023-04-24T02:06:14;2.03;;;1.20;;
21769;SDS011;11046;49.558;8.674;2023-04-24T02:09:15;2.10;;;1.20;;
21769;SDS011;11046;49.558;8.674;2023-04-24T02:12:15;1.83;;;1.07;;
21769;SDS011;11046;49.558;8.674;2023-04-24T02:15:18;3.17;;;1.20;;
21769;SDS011;11046;49.558;8.674;2023-04-24T02:18:18;2.20;;;1.27;;
21769;SDS011;11046;49.558;8.674;2023-04-24T02:21:19;3.03;;;1.53;;
21769;SDS011;11046;49.558;8.674;2023-04-24T02:24:20;2.23;;;1.20;;
21769;SDS011;11046;49.558;8.674;2023-04-24T02:27:20;2.93;;;1.10;;
21769;SDS011;11046;49.558;8.674;2023-04-24T02:30:21;4.70;;;1.10;;
21769;SDS011;11046;49.558;8.674;2023-04-24T02:33:22;5.43;;;1.50;;
21769;SDS011;11046;49.558;8.674;2023-04-24T02:36:22;2.07;;;1.30;;
21769;SDS011;11046;49.558;8.674;2023-04-24T02:39:23;4.03;;;1.50;;
21769;SDS011;11046;49.558;8.674;2023-04-24T02:42:23;2.93;;;1.30;;
21769;SDS011;11046;49.558;8.674;2023-04-24T02:45:24;4.83;;;1.30;;
21769;SDS011;11046;49.558;8.674;2023-04-24T02:48:25;1.83;;;1.10;;
21769;SDS011;11046;49.558;8.674;2023-04-24T02:51:26;3.13;;;1.60;;
21769;SDS011;11046;49.558;8.674;2023-04-24T02:54:27;2.73;;;1.47;;
21769;SDS011;11046;49.558;8.674;2023-04-24T02:57:27;6.23;;;1.50;;
21769;SDS011;11046;49.558;8.674;2023-04-24T03:00:28;3.53;;;1.90;;
21769;SDS011;11046;49.558;8.674;2023-04-24T03:03:28;3.77;;;1.67;;
21769;SDS011;11046;49.558;8.674;2023-04-24T03:06:29;2.00;;;1.60;;
21769;SDS011;11046;49.558;8.674;2023-04-24T03:09:31;1.27;;;1.17;;
21769;SDS011;11046;49.558;8.674;2023-04-24T03:12:31;2.63;;;1.43;;
21769;SDS011;11046;49.558;8.674;2023-04-24T03:15:32;3.10;;;1.70;;
21769;SDS011;11046;49.558;8.674;2023-04-24T03:18:32;2.00;;;1.57;;
21769;SDS011;11046;49.558;8.674;2023-04-24T03:21:33;2.30;;;1.90;;
21769;SDS011;11046;49.558;8.674;2023-04-24T03:24:36;3.43;;;2.20;;
21769;SDS011;11046;49.558;8.674;2023-04-24T03:27:37;4.13;;;2.00;;
21769;SDS011;11046;49.558;8.674;2023-04-24T03:30:53;6.80;;;2.00;;
21769;SDS011;11046;49.558;8.674;2023-04-24T03:33:55;3.00;;;1.87;;
21769;SDS011;11046;49.558;8.674;2023-04-24T03:36:55;3.80;;;1.67;;
21769;SDS011;11046;49.558;8.674;2023-04-24T03:39:57;7.30;;;1.90;;
21769;SDS011;11046;49.558;8.674;2023-04-24T03:42:59;2.90;;;1.97;;
21769;SDS011;11046;49.558;8.674;2023-04-24T03:46:00;3.30;;;2.23;;
21769;SDS011;11046;49.558;8.674;2023-04-24T03:49:03;3.07;;;2.00;;
21769;SDS011;11046;49.558;8.674;2023-04-24T03:52:07;4.17;;;2.17;;
21769;SDS011;11046;49.558;8.674;2023-04-24T03:55:08;3.27;;;1.97;;
21769;SDS011;11046;49.558;8.674;2023-04-24T03:58:15;3.23;;;2.40;;
21769;SDS011;11046;49.558;8.674;2023-04-24T04:01:18;5.00;;;2.20;;
21769;SDS011;11046;49.558;8.674;2023-04-24T04:04:30;3.40;;;2.50;;
21769;SDS011;11046;49.558;8.674;2023-04-24T04:07:30;8.97;;;2.47;;
21769;SDS011;11046;49.558;8.674;2023-04-24T04:10:31;3.90;;;2.70;;
21769;SDS011;11046;49.558;8.674;2023-04-24T04:13:32;3.93;;;2.77;;
21769;SDS011;11046;49.558;8.674;2023-04-24T04:16:33;5.77;;;2.67;;
21769;SDS011;11046;49.558;8.674;2023-04-24T04:19:36;8.23;;;3.50;;
21769;SDS011;11046;49.558;8.674;2023-04-24T04:22:37;6.50;;;3.20;;
21769;SDS011;11046;49.558;8.674;2023-04-24T04:25:41;6.50;;;3.40;;
21769;SDS011;11046;49.558;8.674;2023-04-24T04:28:42;5.07;;;3.13;;
21769;SDS011;11046;49.558;8.674;2023-04-24T04:31:44;5.80;;;3.33;;
21769;SDS011;11046;49.558;8.674;2023-04-24T04:34:47;5.90;;;3.10;;
21769;SDS011;11046;49.558;8.674;2023-04-24T04:37:50;5.90;;;3.07;;
21769;SDS011;11046;49.558;8.674;2023-04-24T04:41:06;6.33;;;3.50;;
21769;SDS011;11046;49.558;8.674;2023-04-24T04:44:07;4.43;;;3.23;;
21769;SDS011;11046;49.558;8.674;2023-04-24T04:47:09;5.77;;;3.60;;
21769;SDS011;11046;49.558;8.674;2023-04-24T04:50:11;4.43;;;3.33;;
21769;SDS011;11046;49.558;8.674;2023-04-24T04:53:12;5.60;;;4.03;;
21769;SDS011;11046;49.558;8.674;2023-04-24T04:56:13;5.37;;;3.33;;
21769;SDS011;11046;49.558;8.674;2023-04-24T04:59:16;6.60;;;3.77;;
21769;SDS011;11046;49.558;8.674;2023-04-24T05:02:16;5.50;;;4.20;;
21769;SDS011;11046;49.558;8.674;2023-04-24T05:05:17;10.57;;;4.10;;
21769;SDS011;11046;49.558;8.674;2023-04-24T05:08:18;6.77;;;4.07;;
21769;SDS011;11046;49.558;8.674;2023-04-24T05:11:19;5.70;;;4.03;;
21769;SDS011;11046;49.558;8.674;2023-04-24T05:14:20;4.80;;;3.40;;
21769;SDS011;11046;49.558;8.674;2023-04-24T05:17:23;6.83;;;3.70;;
21769;SDS011;11046;49.558;8.674;2023-04-24T05:20:25;5.47;;;3.23;;
21769;SDS011;11046;49.558;8.674;2023-04-24T05:23:26;5.20;;;3.40;;
21769;SDS011;11046;49.558;8.674;2023-04-24T05:26:28;4.47;;;3.27;;
21769;SDS011;11046;49.558;8.674;2023-04-24T05:29:31;4.43;;;3.40;;
21769;SDS011;11046;49.558;8.674;2023-04-24T05:32:33;7.60;;;3.73;;
21769;SDS011;11046;49.558;8.674;2023-04-24T05:35:34;6.30;;;3.70;;
21769;SDS011;11046;49.558;8.674;2023-04-24T05:38:36;6.43;;;3.53;;
21769;SDS011;11046;49.558;8.674;2023-04-24T05:41:36;4.93;;;3.77;;
21769;SDS011;11046;49.558;8.674;2023-04-24T05:44:37;6.50;;;3.60;;
21769;SDS011;11046;49.558;8.674;2023-04-24T05:47:38;5.07;;;3.47;;
21769;SDS011;11046;49.558;8.674;2023-04-24T05:50:39;5.00;;;3.83;;
21769;SDS011;11046;49.558;8.674;2023-04-24T05:53:40;6.10;;;3.67;;
21769;SDS011;11046;49.558;8.674;2023-04-24T05:56:41;5.60;;;3.63;;
21769;SDS011;11046;49.558;8.674;2023-04-24T05:59:42;6.23;;;3.70;;
21769;SDS011;11046;49.558;8.674;2023-04-24T06:02:43;5.17;;;3.77;;
21769;SDS011;11046;49.558;8.674;2023-04-24T06:05:46;5.73;;;3.77;;
21769;SDS011;11046;49.558;8.674;2023-04-24T06:08:47;5.73;;;3.60;;
21769;SDS011;11046;49.558;8.674;2023-04-24T06:11:48;6.57;;;3.83;;
21769;SDS011;11046;49.558;8.674;2023-04-24T06:14:49;5.60;;;3.90;;
21769;SDS011;11046;49.558;8.674;2023-04-24T06:17:58;5.90;;;3.93;;
21769;SDS011;11046;49.558;8.674;2023-04-24T06:20:59;10.20;;;4.20;;
21769;SDS011;11046;49.558;8.674;2023-04-24T06:24:00;6.93;;;4.47;;
21769;SDS011;11046;49.558;8.674;2023-04-24T06:27:00;7.67;;;4.70;;
21769;SDS011;11046;49.558;8.674;2023-04-24T06:30:01;9.93;;;4.60;;
21769;SDS011;11046;49.558;8.674;2023-04-24T06:33:02;7.10;;;4.70;;
21769;SDS011;11046;49.558;8.674;2023-04-24T06:36:03;6.60;;;4.57;;
21769;SDS011;11046;49.558;8.674;2023-04-24T06:39:04;8.70;;;4.70;;
21769;SDS011;11046;49.558;8.674;2023-04-24T06:42:04;7.43;;;4.50;;
21769;SDS011;11046;49.558;8.674;2023-04-24T06:45:08;8.70;;;4.20;;
21769;SDS011;11046;49.558;8.674;2023-04-24T06:48:08;7.27;;;4.77;;
21769;SDS011;11046;49.558;8.674;2023-04-24T06:51:10;7.17;;;4.70;;
21769;SDS011;11046;49.558;8.674;2023-04-24T06:54:10;9.07;;;4.53;;
21769;SDS011;11046;49.558;8.674;2023-04-24T06:57:11;5.83;;;4.33;;
21769;SDS011;11046;49.558;8.674;2023-04-24T07:00:11;7.00;;;4.80;;
21769;SDS011;11046;49.558;8.674;2023-04-24T07:03:12;7.53;;;4.63;;
21769;SDS011;11046;49.558;8.674;2023-04-24T07:06:13;6.60;;;4.80;;
21769;SDS011;11046;49.558;8.674;2023-04-24T07:09:14;8.10;;;4.80;;
21769;SDS011;11046;49.558;8.674;2023-04-24T07:12:18;7.23;;;3.70;;
21769;SDS011;11046;49.558;8.674;2023-04-24T07:15:20;7.90;;;3.70;;
21769;SDS011;11046;49.558;8.674;2023-04-24T07:18:21;8.40;;;3.30;;
21769;SDS011;11046;49.558;8.674;2023-04-24T07:21:22;3.77;;;3.20;;
21769;SDS011;11046;49.558;8.674;2023-04-24T07:24:22;2.70;;;2.20;;
21769;SDS011;11046;49.558;8.674;2023-04-24T07:27:23;3.17;;;2.17;;
21769;SDS011;11046;49.558;8.674;2023-04-24T07:30:25;3.27;;;2.20;;
21769;SDS011;11046;49.558;8.674;2023-04-24T07:33:26;2.83;;;2.20;;
21769;SDS011;11046;49.558;8.674;2023-04-24T07:36:26;3.43;;;2.10;;
21769;SDS011;11046;49.558;8.674;2023-04-24T07:39:27;3.53;;;2.23;;
21769;SDS011;11046;49.558;8.674;2023-04-24T07:42:29;3.93;;;2.03;;
21769;SDS011;11046;49.558;8.674;2023-04-24T07:45:34;2.00;;;1.70;;
21769;SDS011;11046;49.558;8.674;2023-04-24T07:48:37;2.33;;;1.63;;
21769;SDS011;11046;49.558;8.674;2023-04-24T07:51:37;2.43;;;1.93;;
21769;SDS011;11046;49.558;8.674;2023-04-24T07:54:39;2.47;;;1.83;;
21769;SDS011;11046;49.558;8.674;2023-04-24T07:57:39;8.67;;;2.20;;
21769;SDS011;11046;49.558;8.674;2023-04-24T08:00:40;2.53;;;2.10;;
21769;SDS011;11046;49.558;8.674;2023-04-24T08:03:40;3.67;;;2.03;;
21769;SDS011;11046;49.558;8.674;2023-04-24T08:06:41;3.03;;;2.13;;
21769;SDS011;11046;49.558;8.674;2023-04-24T08:09:42;3.23;;;2.20;;
21769;SDS011;11046;49.558;8.674;2023-04-24T08:12:42;4.17;;;2.53;;
21769;SDS011;11046;49.558;8.674;2023-04-24T08:15:43;3.13;;;2.20;;
21769;SDS011;11046;49.558;8.674;2023-04-24T08:18:43;3.77;;;2.17;;
21769;SDS011;11046;49.558;8.674;2023-04-24T08:21:44;3.73;;;2.30;;
21769;SDS011;11046;49.558;8.674;2023-04-24T08:24:44;2.95;;;2.20;;
21769;SDS011;11046;49.558;8.674;2023-04-24T08:27:45;6.87;;;2.63;;
21769;SDS011;11046;49.558;8.674;2023-04-24T08:30:46;7.73;;;3.00;;
21769;SDS011;11046;49.558;8.674;2023-04-24T08:33:47;6.40;;;2.87;;
21769;SDS011;11046;49.558;8.674;2023-04-24T08:36:48;5.37;;;3.00;;
21769;SDS011;11046;49.558;8.674;2023-04-24T08:39:49;5.60;;;2.97;;
21769;SDS011;11046;49.558;8.674;2023-04-24T08:42:50;5.20;;;3.00;;
21769;SDS011;11046;49.558;8.674;2023-04-24T08:45:55;3.93;;;2.87;;
21769;SDS011;11046;49.558;8.674;2023-04-24T08:48:56;3.47;;;2.87;;
21769;SDS011;11046;49.558;8.674;2023-04-24T08:51:58;4.87;;;3.23;;
21769;SDS011;11046;49.558;8.674;2023-04-24T08:55:00;7.13;;;3.20;;
21769;SDS011;11046;49.558;8.674;2023-04-24T08:58:01;14.53;;;4.20;;
21769;SDS011;11046;49.558;8.674;2023-04-24T09:01:02;5.87;;;3.60;;
21769;SDS011;11046;49.558;8.674;2023-04-24T09:04:04;6.57;;;3.17;;
21769;SDS011;11046;49.558;8.674;2023-04-24T09:07:08;4.37;;;3.23;;
21769;SDS011;11046;49.558;8.674;2023-04-24T09:10:11;4.70;;;3.30;;
21769;SDS011;11046;49.558;8.674;2023-04-24T09:13:12;6.40;;;3.40;;
21769;SDS011;11046;49.558;8.674;2023-04-24T09:16:14;6.40;;;3.77;;
21769;SDS011;11046;49.558;8.674;2023-04-24T09:19:15;6.27;;;4.07;;
21769;SDS011;11046;49.558;8.674;2023-04-24T09:22:15;6.27;;;4.00;;
21769;SDS011;11046;49.558;8.674;2023-04-24T09:25:16;10.50;;;2.97;;
21769;SDS011;11046;49.558;8.674;2023-04-24T09:28:16;8.47;;;3.30;;
21769;SDS011;11046;49.558;8.674;2023-04-24T09:31:18;4.93;;;3.27;;
21769;SDS011;11046;49.558;8.674;2023-04-24T09:34:25;6.63;;;3.27;;
21769;SDS011;11046;49.558;8.674;2023-04-24T09:37:30;6.27;;;3.43;;
21769;SDS011;11046;49.558;8.674;2023-04-24T09:40:34;4.43;;;3.20;;
21769;SDS011;11046;49.558;8.674;2023-04-24T09:43:35;4.10;;;3.10;;
21769;SDS011;11046;49.558;8.674;2023-04-24T09:46:36;5.80;;;3.20;;
21769;SDS011;11046;49.558;8.674;2023-04-24T09:49:37;3.80;;;2.70;;
21769;SDS011;11046;49.558;8.674;2023-04-24T09:52:39;4.63;;;3.30;;
21769;SDS011;11046;49.558;8.674;2023-04-24T09:55:44;3.67;;;3.00;;
21769;SDS011;11046;49.558;8.674;2023-04-24T09:58:48;4.20;;;2.97;;
21769;SDS011;11046;49.558;8.674;2023-04-24T10:01:49;4.47;;;3.10;;
21769;SDS011;11046;49.558;8.674;2023-04-24T10:04:54;6.90;;;3.23;;
21769;SDS011;11046;49.558;8.674;2023-04-24T10:08:03;3.93;;;3.00;;
21769;SDS011;11046;49.558;8.674;2023-04-24T10:11:11;4.78;;;3.20;;
21769;SDS011;11046;49.558;8.674;2023-04-24T10:14:17;7.35;;;3.40;;
21769;SDS011;11046;49.558;8.674;2023-04-24T10:17:20;5.43;;;3.40;;
21769;SDS011;11046;49.558;8.674;2023-04-24T10:20:23;3.47;;;2.53;;
21769;SDS011;11046;49.558;8.674;2023-04-24T10:23:26;4.00;;;3.00;;
21769;SDS011;11046;49.558;8.674;2023-04-24T10:26:28;7.07;;;3.07;;
21769;SDS011;11046;49.558;8.674;2023-04-24T10:29:29;5.30;;;3.17;;
21769;SDS011;11046;49.558;8.674;2023-04-24T10:32:31;4.97;;;2.97;;
21769;SDS011;11046;49.558;8.674;2023-04-24T10:35:32;4.77;;;2.77;;
21769;SDS011;11046;49.558;8.674;2023-04-24T10:38:38;3.97;;;2.30;;
21769;SDS011;11046;49.558;8.674;2023-04-24T10:41:41;2.70;;;2.47;;
21769;SDS011;11046;49.558;8.674;2023-04-24T10:44:42;7.40;;;3.53;;
21769;SDS011;11046;49.558;8.674;2023-04-24T10:47:42;8.20;;;3.87;;
21769;SDS011;11046;49.558;8.674;2023-04-24T10:50:51;5.97;;;2.73;;
21769;SDS011;11046;49.558;8.674;2023-04-24T10:53:52;4.17;;;2.50;;
21769;SDS011;11046;49.558;8.674;2023-04-24T10:56:53;3.93;;;2.90;;
21769;SDS011;11046;49.558;8.674;2023-04-24T11:00:16;6.20;;;3.07;;
21769;SDS011;11046;49.558;8.674;2023-04-24T11:03:23;4.97;;;3.13;;
21769;SDS011;11046;49.558;8.674;2023-04-24T11:06:32;6.03;;;3.43;;
21769;SDS011;11046;49.558;8.674;2023-04-24T11:09:35;7.47;;;3.30;;
21769;SDS011;11046;49.558;8.674;2023-04-24T11:12:36;5.30;;;3.80;;
21769;SDS011;11046;49.558;8.674;2023-04-24T11:15:38;4.25;;;3.00;;
21769;SDS011;11046;49.558;8.674;2023-04-24T11:18:42;5.10;;;2.83;;
21769;SDS011;11046;49.558;8.674;2023-04-24T11:28:02;8.00;;;3.80;;
21769;SDS011;11046;49.558;8.674;2023-04-24T11:31:33;5.60;;;3.33;;
21769;SDS011;11046;49.558;8.674;2023-04-24T11:34:35;5.13;;;3.70;;
21769;SDS011;11046;49.558;8.674;2023-04-24T11:37:39;7.00;;;3.70;;
21769;SDS011;11046;49.558;8.674;2023-04-24T11:40:41;5.37;;;3.43;;
21769;SDS011;11046;49.558;8.674;2023-04-24T11:43:42;5.00;;;3.50;;
21769;SDS011;11046;49.558;8.674;2023-04-24T11:46:43;8.73;;;4.07;;
21769;SDS011;11046;49.558;8.674;2023-04-24T11:49:44;6.63;;;4.03;;
21769;SDS011;11046;49.558;8.674;2023-04-24T11:52:45;4.47;;;3.43;;
21769;SDS011;11046;49.558;8.674;2023-04-24T11:55:47;6.50;;;4.40;;
21769;SDS011;11046;49.558;8.674;2023-04-24T11:58:47;4.70;;;3.70;;
21769;SDS011;11046;49.558;8.674;2023-04-24T12:01:48;8.90;;;3.73;;
21769;SDS011;11046;49.558;8.674;2023-04-24T12:04:50;5.33;;;3.80;;
21769;SDS011;11046;49.558;8.674;2023-04-24T12:07:51;8.63;;;4.23;;
21769;SDS011;11046;49.558;8.674;2023-04-24T12:10:52;7.90;;;4.23;;
21769;SDS011;11046;49.558;8.674;2023-04-24T12:13:53;9.88;;;5.50;;
21769;SDS011;11046;49.558;8.674;2023-04-24T12:16:54;6.20;;;4.18;;
21769;SDS011;11046;49.558;8.674;2023-04-24T12:20:02;5.43;;;3.87;;
21769;SDS011;11046;49.558;8.674;2023-04-24T12:23:04;4.78;;;3.63;;
21769;SDS011;11046;49.558;8.674;2023-04-24T12:26:05;6.45;;;4.20;;
21769;SDS011;11046;49.558;8.674;2023-04-24T12:29:05;8.13;;;4.45;;
21769;SDS011;11046;49.558;8.674;2023-04-24T12:32:15;8.40;;;5.25;;
21769;SDS011;11046;49.558;8.674;2023-04-24T12:35:19;6.00;;;4.40;;
21769;SDS011;11046;49.558;8.674;2023-04-24T12:38:22;9.90;;;4.93;;
21769;SDS011;11046;49.558;8.674;2023-04-24T12:41:24;5.35;;;4.00;;
21769;SDS011;11046;49.558;8.674;2023-04-24T12:44:29;7.03;;;4.55;;
21769;SDS011;11046;49.558;8.674;2023-04-24T12:47:31;7.22;;;4.28;;
21769;SDS011;11046;49.558;8.674;2023-04-24T12:50:33;6.18;;;4.40;;
21769;SDS011;11046;49.558;8.674;2023-04-24T12:53:33;7.00;;;4.47;;
21769;SDS011;11046;49.558;8.674;2023-04-24T12:56:34;9.32;;;4.20;;
21769;SDS011;11046;49.558;8.674;2023-04-24T12:59:36;5.93;;;4.25;;
21769;SDS011;11046;49.558;8.674;2023-04-24T13:02:36;9.65;;;4.85;;
21769;SDS011;11046;49.558;8.674;2023-04-24T13:05:37;10.32;;;4.72;;
21769;SDS011;11046;49.558;8.674;2023-04-24T13:08:38;5.80;;;4.20;;
21769;SDS011;11046;49.558;8.674;2023-04-24T13:11:38;8.27;;;4.60;;
21769;SDS011;11046;49.558;8.674;2023-04-24T13:14:39;7.57;;;4.70;;
21769;SDS011;11046;49.558;8.674;2023-04-24T13:17:40;8.73;;;5.03;;
21769;SDS011;11046;49.558;8.674;2023-04-24T13:20:40;7.72;;;4.50;;
21769;SDS011;11046;49.558;8.674;2023-04-24T13:23:41;6.72;;;4.70;;
21769;SDS011;11046;49.558;8.674;2023-04-24T13:26:42;5.90;;;4.00;;
21769;SDS011;11046;49.558;8.674;2023-04-24T13:29:43;7.20;;;4.30;;
21769;SDS011;11046;49.558;8.674;2023-04-24T13:32:43;9.32;;;4.18;;
21769;SDS011;11046;49.558;8.674;2023-04-24T13:35:44;6.90;;;4.03;;
21769;SDS011;11046;49.558;8.674;2023-04-24T13:38:45;6.32;;;4.00;;
21769;SDS011;11046;49.558;8.674;2023-04-24T13:41:45;5.63;;;4.13;;
21769;SDS011;11046;49.558;8.674;2023-04-24T13:44:48;6.27;;;4.33;;
21769;SDS011;11046;49.558;8.674;2023-04-24T13:47:48;9.60;;;5.18;;
21769;SDS011;11046;49.558;8.674;2023-04-24T13:50:49;8.13;;;4.45;;
21769;SDS011;11046;49.558;8.674;2023-04-24T13:53:49;7.32;;;4.32;;
21769;SDS011;11046;49.558;8.674;2023-04-24T13:56:50;8.20;;;4.45;;
21769;SDS011;11046;49.558;8.674;2023-04-24T13:59:51;6.85;;;4.20;;
21769;SDS011;11046;49.558;8.674;2023-04-24T14:02:52;5.75;;;4.10;;
21769;SDS011;11046;49.558;8.674;2023-04-24T14:05:52;7.50;;;3.80;;
21769;SDS011;11046;49.558;8.674;2023-04-24T14:08:53;9.02;;;3.22;;
21769;SDS011;11046;49.558;8.674;2023-04-24T14:11:53;5.82;;;3.75;;
21769;SDS011;11046;49.558;8.674;2023-04-24T14:14:54;4.35;;;3.47;;
21769;SDS011;11046;49.558;8.674;2023-04-24T14:17:55;7.60;;;3.60;;
21769;SDS011;11046;49.558;8.674;2023-04-24T14:20:55;5.70;;;3.90;;
21769;SDS011;11046;49.558;8.674;2023-04-24T14:23:56;7.20;;;4.20;;
21769;SDS011;11046;49.558;8.674;2023-04-24T14:26:57;7.75;;;3.90;;
21769;SDS011;11046;49.558;8.674;2023-04-24T14:29:57;7.68;;;4.40;;
21769;SDS011;11046;49.558;8.674;2023-04-24T14:32:58;5.50;;;3.88;;
21769;SDS011;11046;49.558;8.674;2023-04-24T14:35:58;5.00;;;3.55;;
21769;SDS011;11046;49.558;8.674;2023-04-24T14:38:59;5.10;;;3.33;;
21769;SDS011;11046;49.558;8.674;2023-04-24T14:42:02;5.75;;;3.60;;
21769;SDS011;11046;49.558;8.674;2023-04-24T14:45:02;5.22;;;3.88;;
21769;SDS011;11046;49.558;8.674;2023-04-24T14:48:03;8.10;;;4.03;;
21769;SDS011;11046;49.558;8.674;2023-04-24T14:51:04;6.03;;;3.90;;
21769;SDS011;11046;49.558;8.674;2023-04-24T14:54:05;6.18;;;3.20;;
21769;SDS011;11046;49.558;8.674;2023-04-24T14:57:06;9.23;;;3.83;;
21769;SDS011;11046;49.558;8.674;2023-04-24T15:00:07;5.05;;;3.70;;
21769;SDS011;11046;49.558;8.674;2023-04-24T15:03:10;5.97;;;3.85;;
21769;SDS011;11046;49.558;8.674;2023-04-24T15:06:10;6.13;;;4.50;;
21769;SDS011;11046;49.558;8.674;2023-04-24T15:09:11;5.65;;;4.15;;
21769;SDS011;11046;49.558;8.674;2023-04-24T15:12:11;5.35;;;4.13;;
21769;SDS011;11046;49.558;8.674;2023-04-24T15:15:12;6.35;;;4.30;;
21769;SDS011;11046;49.558;8.674;2023-04-24T15:18:13;6.90;;;4.18;;
21769;SDS011;11046;49.558;8.674;2023-04-24T15:21:13;6.32;;;4.38;;
21769;SDS011;11046;49.558;8.674;2023-04-24T15:24:14;8.23;;;4.82;;
21769;SDS011;11046;49.558;8.674;2023-04-24T15:27:15;5.88;;;4.07;;
21769;SDS011;11046;49.558;8.674;2023-04-24T15:30:15;6.15;;;4.25;;
21769;SDS011;11046;49.558;8.674;2023-04-24T15:33:16;6.18;;;3.75;;
21769;SDS011;11046;49.558;8.674;2023-04-24T15:36:17;5.93;;;3.95;;
21769;SDS011;11046;49.558;8.674;2023-04-24T15:39:19;7.28;;;4.30;;
21769;SDS011;11046;49.558;8.674;2023-04-24T15:42:23;5.18;;;3.78;;
21769;SDS011;11046;49.558;8.674;2023-04-24T15:45:23;6.68;;;4.40;;
21769;SDS011;11046;49.558;8.674;2023-04-24T15:48:25;5.05;;;3.80;;
21769;SDS011;11046;49.558;8.674;2023-04-24T15:51:25;5.93;;;3.90;;
21769;SDS011;11046;49.558;8.674;2023-04-24T15:54:26;6.13;;;4.38;;
21769;SDS011;11046;49.558;8.674;2023-04-24T15:57:27;9.52;;;4.18;;
21769;SDS011;11046;49.558;8.674;2023-04-24T16:00:27;5.10;;;3.85;;
21769;SDS011;11046;49.558;8.674;2023-04-24T16:03:33;5.50;;;3.95;;
21769;SDS011;11046;49.558;8.674;2023-04-24T16:06:33;7.32;;;3.60;;
21769;SDS011;11046;49.558;8.674;2023-04-24T16:09:34;6.88;;;4.47;;
21769;SDS011;11046;49.558;8.674;2023-04-24T16:12:35;7.30;;;4.45;;
21769;SDS011;11046;49.558;8.674;2023-04-24T16:15:35;7.07;;;4.78;;
21769;SDS011;11046;49.558;8.674;2023-04-24T16:18:36;9.40;;;4.32;;
21769;SDS011;11046;49.558;8.674;2023-04-24T16:21:36;7.13;;;4.80;;
21769;SDS011;11046;49.558;8.674;2023-04-24T16:24:37;7.10;;;4.40;;
21769;SDS011;11046;49.558;8.674;2023-04-24T16:27:38;9.30;;;4.65;;
21769;SDS011;11046;49.558;8.674;2023-04-24T16:30:38;5.53;;;4.18;;
21769;SDS011;11046;49.558;8.674;2023-04-24T16:33:39;10.27;;;5.57;;
21769;SDS011;11046;49.558;8.674;2023-04-24T16:36:39;7.45;;;4.78;;
21769;SDS011;11046;49.558;8.674;2023-04-24T16:39:41;6.70;;;4.57;;
21769;SDS011;11046;49.558;8.674;2023-04-24T16:42:44;7.13;;;4.90;;
21769;SDS011;11046;49.558;8.674;2023-04-24T16:45:44;7.85;;;4.50;;
21769;SDS011;11046;49.558;8.674;2023-04-24T16:48:45;8.75;;;4.95;;
21769;SDS011;11046;49.558;8.674;2023-04-24T16:51:45;9.70;;;4.78;;
21769;SDS011;11046;49.558;8.674;2023-04-24T16:54:46;7.25;;;4.97;;
21769;SDS011;11046;49.558;8.674;2023-04-24T16:57:47;5.13;;;3.92;;
21769;SDS011;11046;49.558;8.674;2023-04-24T17:00:47;6.05;;;4.30;;
21769;SDS011;11046;49.558;8.674;2023-04-24T17:03:49;11.45;;;5.07;;
21769;SDS011;11046;49.558;8.674;2023-04-24T17:06:50;6.70;;;3.78;;
21769;SDS011;11046;49.558;8.674;2023-04-24T17:09:51;5.97;;;4.32;;
21769;SDS011;11046;49.558;8.674;2023-04-24T17:12:51;5.75;;;4.20;;
21769;SDS011;11046;49.558;8.674;2023-04-24T17:15:52;6.65;;;4.50;;
21769;SDS011;11046;49.558;8.674;2023-04-24T17:18:52;5.75;;;4.18;;
21769;SDS011;11046;49.558;8.674;2023-04-24T17:21:53;10.48;;;4.40;;
21769;SDS011;11046;49.558;8.674;2023-04-24T17:24:53;5.38;;;3.83;;
21769;SDS011;11046;49.558;8.674;2023-04-24T17:27:54;6.72;;;3.65;;
21769;SDS011;11046;49.558;8.674;2023-04-24T17:30:55;4.53;;;3.42;;
21769;SDS011;11046;49.558;8.674;2023-04-24T17:33:58;9.02;;;4.07;;
21769;SDS011;11046;49.558;8.674;2023-04-24T17:36:59;7.25;;;3.80;;
21769;SDS011;11046;49.558;8.674;2023-04-24T17:40:01;5.70;;;3.80;;
21769;SDS011;11046;49.558;8.674;2023-04-24T17:43:02;5.03;;;3.40;;
21769;SDS011;11046;49.558;8.674;2023-04-24T17:46:03;6.38;;;4.18;;
21769;SDS011;11046;49.558;8.674;2023-04-24T17:49:03;5.60;;;4.13;;
21769;SDS011;11046;49.558;8.674;2023-04-24T17:52:04;5.13;;;3.60;;
21769;SDS011;11046;49.558;8.674;2023-04-24T17:55:05;5.67;;;4.10;;
21769;SDS011;11046;49.558;8.674;2023-04-24T17:58:06;10.43;;;4.13;;
21769;SDS011;11046;49.558;8.674;2023-04-24T18:01:07;5.30;;;4.03;;
21769;SDS011;11046;49.558;8.674;2023-04-24T18:04:07;11.23;;;4.10;;
21769;SDS011;11046;49.558;8.674;2023-04-24T18:07:08;5.57;;;4.17;;
21769;SDS011;11046;49.558;8.674;2023-04-24T18:10:09;7.05;;;4.22;;
21769;SDS011;11046;49.558;8.674;2023-04-24T18:13:09;6.60;;;4.30;;
21769;SDS011;11046;49.558;8.674;2023-04-24T18:16:10;6.50;;;4.27;;
21769;SDS011;11046;49.558;8.674;2023-04-24T18:19:11;5.88;;;4.10;;
21769;SDS011;11046;49.558;8.674;2023-04-24T18:22:12;6.93;;;4.17;;